sensor_id;sensor_type;location;lat;lon;timestamp;temperature;humidity
53748;DHT22;39655;53.210;5.768;2023-03-20T00:01:30;6.60;94.10
53748;DHT22;39655;53.210;5.768;2023-03-20T00:03:56;6.60;94.20
53748;DHT22;39655;53.210;5.768;2023-03-20T00:06:24;6.70;94.30
53748;DHT22;39655;53.210;5.768;2023-03-20T00:08:52;6.70;94.30
53748;DHT22;39655;53.210;5.768;2023-03-20T00:11:51;6.70;94.40
53748;DHT22;39655;53.210;5.768;2023-03-20T00:14:19;6.70;94.30
53748;DHT22;39655;53.210;5.768;2023-03-20T00:16:48;6.70;94.40
53748;DHT22;39655;53.210;5.768;2023-03-20T00:19:21;6.70;94.40
53748;DHT22;39655;53.210;5.768;2023-03-20T00:21:48;6.80;94.40
53748;DHT22;39655;53.210;5.768;2023-03-20T00:24:15;6.80;94.40
53748;DHT22;39655;53.210;5.768;2023-03-20T00:26:42;6.80;94.50
53748;DHT22;39655;53.210;5.768;2023-03-20T00:29:17;6.80;94.50
53748;DHT22;39655;53.210;5.768;2023-03-20T00:31:44;6.90;94.50
53748;DHT22;39655;53.210;5.768;2023-03-20T00:34:18;6.90;94.70
53748;DHT22;39655;53.210;5.768;2023-03-20T00:36:44;6.90;94.60
53748;DHT22;39655;53.210;5.768;2023-03-20T00:39:10;7.00;94.60
53748;DHT22;39655;53.210;5.768;2023-03-20T00:41:42;6.90;94.60
53748;DHT22;39655;53.210;5.768;2023-03-20T00:44:21;7.00;94.60
53748;DHT22;39655;53.210;5.768;2023-03-20T00:46:53;7.00;94.60
53748;DHT22;39655;53.210;5.768;2023-03-20T00:49:34;7.00;94.70
53748;DHT22;39655;53.210;5.768;2023-03-20T00:52:01;7.10;94.70
53748;DHT22;39655;53.210;5.768;2023-03-20T00:54:28;7.10;94.60
53748;DHT22;39655;53.210;5.768;2023-03-20T00:59:30;7.10;94.70
53748;DHT22;39655;53.210;5.768;2023-03-20T01:01:58;7.10;94.80
53748;DHT22;39655;53.210;5.768;2023-03-20T01:04:35;7.10;94.80
53748;DHT22;39655;53.210;5.768;2023-03-20T01:07:03;7.10;94.70
53748;DHT22;39655;53.210;5.768;2023-03-20T01:09:28;7.20;94.70
53748;DHT22;39655;53.210;5.768;2023-03-20T01:11:54;7.20;94.80
53748;DHT22;39655;53.210;5.768;2023-03-20T01:14:20;7.20;94.70
53748;DHT22;39655;53.210;5.768;2023-03-20T01:16:46;7.20;94.80
53748;DHT22;39655;53.210;5.768;2023-03-20T01:19:13;7.20;94.80
53748;DHT22;39655;53.210;5.768;2023-03-20T01:21:39;7.20;94.80
53748;DHT22;39655;53.210;5.768;2023-03-20T01:24:05;7.20;94.90
53748;DHT22;39655;53.210;5.768;2023-03-20T01:26:35;7.30;94.80
53748;DHT22;39655;53.210;5.768;2023-03-20T01:29:02;7.30;94.80
53748;DHT22;39655;53.210;5.768;2023-03-20T01:31:28;7.20;94.80
53748;DHT22;39655;53.210;5.768;2023-03-20T01:33:54;7.30;94.90
53748;DHT22;39655;53.210;5.768;2023-03-20T01:36:21;7.30;94.90
53748;DHT22;39655;53.210;5.768;2023-03-20T01:38:57;7.40;95.10
53748;DHT22;39655;53.210;5.768;2023-03-20T01:41:25;7.40;94.90
53748;DHT22;39655;53.210;5.768;2023-03-20T01:43:51;7.40;94.90
53748;DHT22;39655;53.210;5.768;2023-03-20T01:46:30;7.50;95.00
53748;DHT22;39655;53.210;5.768;2023-03-20T01:49:06;7.40;94.80
53748;DHT22;39655;53.210;5.768;2023-03-20T01:51:32;7.30;94.80
53748;DHT22;39655;53.210;5.768;2023-03-20T01:54:16;7.30;94.80
53748;DHT22;39655;53.210;5.768;2023-03-20T01:59:35;7.40;94.90
53748;DHT22;39655;53.210;5.768;2023-03-20T02:02:04;7.40;95.00
53748;DHT22;39655;53.210;5.768;2023-03-20T02:04:35;7.30;94.80
53748;DHT22;39655;53.210;5.768;2023-03-20T02:07:02;7.40;94.90
53748;DHT22;39655;53.210;5.768;2023-03-20T02:09:28;7.40;94.90
53748;DHT22;39655;53.210;5.768;2023-03-20T02:11:55;7.40;95.10
53748;DHT22;39655;53.210;5.768;2023-03-20T02:14:22;7.50;95.00
53748;DHT22;39655;53.210;5.768;2023-03-20T02:16:48;7.40;94.80
53748;DHT22;39655;53.210;5.768;2023-03-20T02:19:34;7.50;94.90
53748;DHT22;39655;53.210;5.768;2023-03-20T02:25:03;7.40;94.80
53748;DHT22;39655;53.210;5.768;2023-03-20T02:47:10;7.50;94.70
53748;DHT22;39655;53.210;5.768;2023-03-20T02:49:45;7.50;94.60
53748;DHT22;39655;53.210;5.768;2023-03-20T02:52:50;7.60;94.60
53748;DHT22;39655;53.210;5.768;2023-03-20T02:55:30;7.60;94.50
53748;DHT22;39655;53.210;5.768;2023-03-20T02:58:20;7.50;94.40
53748;DHT22;39655;53.210;5.768;2023-03-20T03:00:57;7.50;94.40
53748;DHT22;39655;53.210;5.768;2023-03-20T03:03:27;7.60;94.30
53748;DHT22;39655;53.210;5.768;2023-03-20T03:06:00;7.60;94.30
53748;DHT22;39655;53.210;5.768;2023-03-20T03:08:31;7.60;93.80
53748;DHT22;39655;53.210;5.768;2023-03-20T03:11:04;7.60;93.70
53748;DHT22;39655;53.210;5.768;2023-03-20T03:13:34;7.60;93.60
53748;DHT22;39655;53.210;5.768;2023-03-20T03:16:09;7.70;93.30
53748;DHT22;39655;53.210;5.768;2023-03-20T03:18:36;7.70;93.00
53748;DHT22;39655;53.210;5.768;2023-03-20T03:21:05;7.70;92.80
53748;DHT22;39655;53.210;5.768;2023-03-20T03:23:45;7.70;92.70
53748;DHT22;39655;53.210;5.768;2023-03-20T03:26:20;7.70;92.60
53748;DHT22;39655;53.210;5.768;2023-03-20T03:28:50;7.70;92.60
53748;DHT22;39655;53.210;5.768;2023-03-20T03:31:18;7.70;92.30
53748;DHT22;39655;53.210;5.768;2023-03-20T03:33:50;7.70;92.00
53748;DHT22;39655;53.210;5.768;2023-03-20T03:42:23;7.70;91.70
53748;DHT22;39655;53.210;5.768;2023-03-20T03:45:03;7.70;91.70
53748;DHT22;39655;53.210;5.768;2023-03-20T03:50:19;7.70;91.70
53748;DHT22;39655;53.210;5.768;2023-03-20T03:52:48;7.70;91.70
53748;DHT22;39655;53.210;5.768;2023-03-20T03:55:19;7.60;91.70
53748;DHT22;39655;53.210;5.768;2023-03-20T03:57:55;7.70;91.70
53748;DHT22;39655;53.210;5.768;2023-03-20T04:00:23;7.60;91.70
53748;DHT22;39655;53.210;5.768;2023-03-20T04:02:53;7.60;91.80
53748;DHT22;39655;53.210;5.768;2023-03-20T04:05:20;7.60;91.90
53748;DHT22;39655;53.210;5.768;2023-03-20T04:07:51;7.70;91.80
53748;DHT22;39655;53.210;5.768;2023-03-20T04:10:17;7.60;91.70
53748;DHT22;39655;53.210;5.768;2023-03-20T04:12:44;7.60;91.60
53748;DHT22;39655;53.210;5.768;2023-03-20T04:15:12;7.60;91.60
53748;DHT22;39655;53.210;5.768;2023-03-20T04:17:39;7.60;91.60
53748;DHT22;39655;53.210;5.768;2023-03-20T04:20:05;7.60;91.80
53748;DHT22;39655;53.210;5.768;2023-03-20T04:22:31;7.50;91.90
53748;DHT22;39655;53.210;5.768;2023-03-20T04:25:00;7.50;91.90
53748;DHT22;39655;53.210;5.768;2023-03-20T04:27:27;7.50;91.90
53748;DHT22;39655;53.210;5.768;2023-03-20T04:29:53;7.50;91.90
53748;DHT22;39655;53.210;5.768;2023-03-20T04:32:19;7.60;92.00
53748;DHT22;39655;53.210;5.768;2023-03-20T04:34:44;7.60;91.80
53748;DHT22;39655;53.210;5.768;2023-03-20T04:37:11;7.60;91.70
53748;DHT22;39655;53.210;5.768;2023-03-20T04:39:36;7.60;91.70
53748;DHT22;39655;53.210;5.768;2023-03-20T04:42:03;7.60;91.80
53748;DHT22;39655;53.210;5.768;2023-03-20T04:44:30;7.60;91.70
53748;DHT22;39655;53.210;5.768;2023-03-20T04:46:56;7.60;91.60
53748;DHT22;39655;53.210;5.768;2023-03-20T04:49:22;7.60;91.70
53748;DHT22;39655;53.210;5.768;2023-03-20T04:51:47;7.50;91.80
53748;DHT22;39655;53.210;5.768;2023-03-20T04:54:13;7.50;91.70
53748;DHT22;39655;53.210;5.768;2023-03-20T04:56:39;7.50;91.70
53748;DHT22;39655;53.210;5.768;2023-03-20T04:59:05;7.50;91.60
53748;DHT22;39655;53.210;5.768;2023-03-20T05:01:30;7.50;91.60
53748;DHT22;39655;53.210;5.768;2023-03-20T05:03:56;7.50;91.60
53748;DHT22;39655;53.210;5.768;2023-03-20T05:06:31;7.50;91.70
53748;DHT22;39655;53.210;5.768;2023-03-20T05:08:58;7.50;91.50
53748;DHT22;39655;53.210;5.768;2023-03-20T05:11:27;7.50;91.70
53748;DHT22;39655;53.210;5.768;2023-03-20T05:13:53;7.50;91.60
53748;DHT22;39655;53.210;5.768;2023-03-20T05:16:19;7.40;91.50
53748;DHT22;39655;53.210;5.768;2023-03-20T05:18:45;7.40;91.70
53748;DHT22;39655;53.210;5.768;2023-03-20T05:21:11;7.40;91.50
53748;DHT22;39655;53.210;5.768;2023-03-20T05:23:37;7.40;91.60
53748;DHT22;39655;53.210;5.768;2023-03-20T05:26:03;7.50;91.50
53748;DHT22;39655;53.210;5.768;2023-03-20T05:28:29;7.40;91.30
53748;DHT22;39655;53.210;5.768;2023-03-20T05:30:54;7.40;91.60
53748;DHT22;39655;53.210;5.768;2023-03-20T05:33:20;7.40;91.40
53748;DHT22;39655;53.210;5.768;2023-03-20T05:35:46;7.40;91.40
53748;DHT22;39655;53.210;5.768;2023-03-20T05:38:12;7.30;91.50
53748;DHT22;39655;53.210;5.768;2023-03-20T05:40:38;7.30;91.60
53748;DHT22;39655;53.210;5.768;2023-03-20T05:43:06;7.40;91.50
53748;DHT22;39655;53.210;5.768;2023-03-20T05:45:32;7.30;91.60
53748;DHT22;39655;53.210;5.768;2023-03-20T05:47:58;7.30;91.70
53748;DHT22;39655;53.210;5.768;2023-03-20T05:50:24;7.30;91.80
53748;DHT22;39655;53.210;5.768;2023-03-20T05:52:50;7.30;91.60
53748;DHT22;39655;53.210;5.768;2023-03-20T05:55:16;7.30;91.40
53748;DHT22;39655;53.210;5.768;2023-03-20T05:57:41;7.30;91.50
53748;DHT22;39655;53.210;5.768;2023-03-20T06:00:08;7.30;91.60
53748;DHT22;39655;53.210;5.768;2023-03-20T06:02:35;7.30;91.60
53748;DHT22;39655;53.210;5.768;2023-03-20T06:05:02;7.30;91.50
53748;DHT22;39655;53.210;5.768;2023-03-20T06:07:28;7.40;91.40
53748;DHT22;39655;53.210;5.768;2023-03-20T06:09:54;7.30;91.30
53748;DHT22;39655;53.210;5.768;2023-03-20T06:12:20;7.30;91.40
53748;DHT22;39655;53.210;5.768;2023-03-20T06:14:45;7.30;91.40
53748;DHT22;39655;53.210;5.768;2023-03-20T06:17:11;7.30;91.40
53748;DHT22;39655;53.210;5.768;2023-03-20T06:19:37;7.40;91.40
53748;DHT22;39655;53.210;5.768;2023-03-20T06:22:03;7.30;91.50
53748;DHT22;39655;53.210;5.768;2023-03-20T06:24:30;7.30;91.50
53748;DHT22;39655;53.210;5.768;2023-03-20T06:26:56;7.40;91.50
53748;DHT22;39655;53.210;5.768;2023-03-20T06:29:22;7.40;91.50
53748;DHT22;39655;53.210;5.768;2023-03-20T06:31:48;7.40;91.50
53748;DHT22;39655;53.210;5.768;2023-03-20T06:34:13;7.40;91.50
53748;DHT22;39655;53.210;5.768;2023-03-20T06:36:40;7.50;91.20
53748;DHT22;39655;53.210;5.768;2023-03-20T06:39:05;7.50;91.20
53748;DHT22;39655;53.210;5.768;2023-03-20T06:41:32;7.50;91.20
53748;DHT22;39655;53.210;5.768;2023-03-20T06:43:58;7.60;91.20
53748;DHT22;39655;53.210;5.768;2023-03-20T06:46:24;7.60;90.90
53748;DHT22;39655;53.210;5.768;2023-03-20T06:48:50;7.60;90.80
53748;DHT22;39655;53.210;5.768;2023-03-20T06:51:16;7.60;90.90
53748;DHT22;39655;53.210;5.768;2023-03-20T06:53:42;7.70;90.60
53748;DHT22;39655;53.210;5.768;2023-03-20T06:56:10;7.70;90.50
53748;DHT22;39655;53.210;5.768;2023-03-20T06:58:36;7.70;90.60
53748;DHT22;39655;53.210;5.768;2023-03-20T07:01:08;7.80;90.80
53748;DHT22;39655;53.210;5.768;2023-03-20T07:03:34;7.90;90.30
53748;DHT22;39655;53.210;5.768;2023-03-20T07:06:00;7.80;90.20
53748;DHT22;39655;53.210;5.768;2023-03-20T07:08:26;7.90;90.20
53748;DHT22;39655;53.210;5.768;2023-03-20T07:10:52;7.90;90.10
53748;DHT22;39655;53.210;5.768;2023-03-20T07:13:18;7.90;90.20
53748;DHT22;39655;53.210;5.768;2023-03-20T07:15:44;7.90;90.20
53748;DHT22;39655;53.210;5.768;2023-03-20T07:18:10;8.00;90.10
53748;DHT22;39655;53.210;5.768;2023-03-20T07:20:35;8.00;89.90
53748;DHT22;39655;53.210;5.768;2023-03-20T07:23:03;8.00;90.30
53748;DHT22;39655;53.210;5.768;2023-03-20T07:25:31;8.20;90.30
53748;DHT22;39655;53.210;5.768;2023-03-20T07:27:57;8.20;89.60
53748;DHT22;39655;53.210;5.768;2023-03-20T07:30:23;8.20;89.20
53748;DHT22;39655;53.210;5.768;2023-03-20T07:32:49;8.20;89.20
53748;DHT22;39655;53.210;5.768;2023-03-20T07:35:18;8.20;89.30
53748;DHT22;39655;53.210;5.768;2023-03-20T07:37:44;8.20;89.10
53748;DHT22;39655;53.210;5.768;2023-03-20T07:40:10;8.20;89.20
53748;DHT22;39655;53.210;5.768;2023-03-20T07:42:36;8.20;89.30
53748;DHT22;39655;53.210;5.768;2023-03-20T07:45:02;8.20;89.40
53748;DHT22;39655;53.210;5.768;2023-03-20T07:47:28;8.30;89.20
53748;DHT22;39655;53.210;5.768;2023-03-20T07:49:54;8.30;89.00
53748;DHT22;39655;53.210;5.768;2023-03-20T07:52:19;8.30;88.90
53748;DHT22;39655;53.210;5.768;2023-03-20T07:54:45;8.30;89.10
53748;DHT22;39655;53.210;5.768;2023-03-20T07:57:11;8.40;89.10
53748;DHT22;39655;53.210;5.768;2023-03-20T07:59:36;8.40;89.00
53748;DHT22;39655;53.210;5.768;2023-03-20T08:02:02;8.50;89.10
53748;DHT22;39655;53.210;5.768;2023-03-20T08:04:27;8.60;88.80
53748;DHT22;39655;53.210;5.768;2023-03-20T08:06:53;8.70;88.50
53748;DHT22;39655;53.210;5.768;2023-03-20T08:09:19;8.70;88.40
53748;DHT22;39655;53.210;5.768;2023-03-20T08:11:45;8.70;88.50
53748;DHT22;39655;53.210;5.768;2023-03-20T08:14:11;8.80;88.30
53748;DHT22;39655;53.210;5.768;2023-03-20T08:16:37;8.80;88.40
53748;DHT22;39655;53.210;5.768;2023-03-20T08:19:03;8.80;87.90
53748;DHT22;39655;53.210;5.768;2023-03-20T08:21:31;8.90;87.70
53748;DHT22;39655;53.210;5.768;2023-03-20T08:23:57;8.90;87.50
53748;DHT22;39655;53.210;5.768;2023-03-20T08:26:23;8.90;87.70
53748;DHT22;39655;53.210;5.768;2023-03-20T08:28:50;9.00;87.40
53748;DHT22;39655;53.210;5.768;2023-03-20T08:31:16;9.10;87.00
53748;DHT22;39655;53.210;5.768;2023-03-20T08:33:43;9.10;86.50
53748;DHT22;39655;53.210;5.768;2023-03-20T08:36:09;9.10;86.80
53748;DHT22;39655;53.210;5.768;2023-03-20T08:38:35;9.10;86.70
53748;DHT22;39655;53.210;5.768;2023-03-20T08:41:02;9.20;86.50
53748;DHT22;39655;53.210;5.768;2023-03-20T08:43:27;9.20;86.10
53748;DHT22;39655;53.210;5.768;2023-03-20T08:45:53;9.20;86.50
53748;DHT22;39655;53.210;5.768;2023-03-20T08:48:19;9.30;86.80
53748;DHT22;39655;53.210;5.768;2023-03-20T08:50:45;9.40;86.10
53748;DHT22;39655;53.210;5.768;2023-03-20T08:53:11;9.40;85.80
53748;DHT22;39655;53.210;5.768;2023-03-20T08:55:36;9.40;85.60
53748;DHT22;39655;53.210;5.768;2023-03-20T08:58:02;9.40;85.50
53748;DHT22;39655;53.210;5.768;2023-03-20T09:00:28;9.40;85.10
53748;DHT22;39655;53.210;5.768;2023-03-20T09:02:54;9.50;85.40
53748;DHT22;39655;53.210;5.768;2023-03-20T09:05:20;9.50;85.70
53748;DHT22;39655;53.210;5.768;2023-03-20T09:07:46;9.60;85.70
53748;DHT22;39655;53.210;5.768;2023-03-20T09:10:12;9.70;85.50
53748;DHT22;39655;53.210;5.768;2023-03-20T09:12:38;9.70;85.20
53748;DHT22;39655;53.210;5.768;2023-03-20T09:15:04;9.70;84.90
53748;DHT22;39655;53.210;5.768;2023-03-20T09:17:31;9.80;84.60
53748;DHT22;39655;53.210;5.768;2023-03-20T09:19:57;9.80;84.50
53748;DHT22;39655;53.210;5.768;2023-03-20T09:22:22;9.90;84.90
53748;DHT22;39655;53.210;5.768;2023-03-20T09:24:48;9.90;85.00
53748;DHT22;39655;53.210;5.768;2023-03-20T09:27:14;9.90;84.20
53748;DHT22;39655;53.210;5.768;2023-03-20T09:29:41;9.90;84.30
53748;DHT22;39655;53.210;5.768;2023-03-20T09:32:10;9.90;84.40
53748;DHT22;39655;53.210;5.768;2023-03-20T09:34:36;10.00;84.00
53748;DHT22;39655;53.210;5.768;2023-03-20T09:37:02;9.90;84.00
53748;DHT22;39655;53.210;5.768;2023-03-20T09:39:28;9.80;84.40
53748;DHT22;39655;53.210;5.768;2023-03-20T09:41:54;9.80;84.50
53748;DHT22;39655;53.210;5.768;2023-03-20T09:50:20;9.70;85.00
53748;DHT22;39655;53.210;5.768;2023-03-20T09:53:10;9.70;85.40
53748;DHT22;39655;53.210;5.768;2023-03-20T09:55:43;9.70;85.50
53748;DHT22;39655;53.210;5.768;2023-03-20T09:58:26;9.70;85.30
53748;DHT22;39655;53.210;5.768;2023-03-20T10:00:57;9.70;85.00
53748;DHT22;39655;53.210;5.768;2023-03-20T10:03:38;9.70;85.00
53748;DHT22;39655;53.210;5.768;2023-03-20T10:06:12;9.70;85.20
53748;DHT22;39655;53.210;5.768;2023-03-20T10:08:38;9.60;85.40
53748;DHT22;39655;53.210;5.768;2023-03-20T10:13:57;9.70;86.20
53748;DHT22;39655;53.210;5.768;2023-03-20T10:16:44;9.70;86.20
53748;DHT22;39655;53.210;5.768;2023-03-20T10:19:20;9.70;86.00
53748;DHT22;39655;53.210;5.768;2023-03-20T10:21:49;9.50;85.70
53748;DHT22;39655;53.210;5.768;2023-03-20T10:24:31;9.60;85.80
53748;DHT22;39655;53.210;5.768;2023-03-20T10:27:04;9.70;85.90
53748;DHT22;39655;53.210;5.768;2023-03-20T10:32:37;9.70;85.80
53748;DHT22;39655;53.210;5.768;2023-03-20T10:35:16;9.70;85.80
53748;DHT22;39655;53.210;5.768;2023-03-20T10:37:53;9.70;85.80
53748;DHT22;39655;53.210;5.768;2023-03-20T10:40:30;9.80;85.50
53748;DHT22;39655;53.210;5.768;2023-03-20T10:43:02;9.90;85.30
53748;DHT22;39655;53.210;5.768;2023-03-20T10:45:30;9.80;85.40
53748;DHT22;39655;53.210;5.768;2023-03-20T10:48:00;9.90;85.70
53748;DHT22;39655;53.210;5.768;2023-03-20T10:50:32;10.00;85.60
53748;DHT22;39655;53.210;5.768;2023-03-20T10:52:59;10.10;85.20
53748;DHT22;39655;53.210;5.768;2023-03-20T10:55:30;10.00;85.00
53748;DHT22;39655;53.210;5.768;2023-03-20T10:58:02;10.00;84.90
53748;DHT22;39655;53.210;5.768;2023-03-20T11:00:33;10.00;85.00
53748;DHT22;39655;53.210;5.768;2023-03-20T11:02:59;10.00;85.20
53748;DHT22;39655;53.210;5.768;2023-03-20T11:05:31;9.80;85.90
53748;DHT22;39655;53.210;5.768;2023-03-20T11:08:01;9.70;86.90
53748;DHT22;39655;53.210;5.768;2023-03-20T11:10:30;9.60;87.80
53748;DHT22;39655;53.210;5.768;2023-03-20T11:12:56;9.50;88.20
53748;DHT22;39655;53.210;5.768;2023-03-20T11:15:24;9.30;89.10
53748;DHT22;39655;53.210;5.768;2023-03-20T11:17:55;9.20;89.40
53748;DHT22;39655;53.210;5.768;2023-03-20T11:20:21;9.10;90.10
53748;DHT22;39655;53.210;5.768;2023-03-20T11:22:48;9.00;90.50
53748;DHT22;39655;53.210;5.768;2023-03-20T11:30:45;9.10;92.50
53748;DHT22;39655;53.210;5.768;2023-03-20T11:33:11;9.10;92.70
53748;DHT22;39655;53.210;5.768;2023-03-20T11:35:37;9.00;92.80
53748;DHT22;39655;53.210;5.768;2023-03-20T11:40:37;8.90;93.30
53748;DHT22;39655;53.210;5.768;2023-03-20T11:43:10;8.90;94.00
53748;DHT22;39655;53.210;5.768;2023-03-20T11:46:03;8.90;93.70
53748;DHT22;39655;53.210;5.768;2023-03-20T11:48:39;8.90;94.10
53748;DHT22;39655;53.210;5.768;2023-03-20T11:51:14;8.90;94.20
53748;DHT22;39655;53.210;5.768;2023-03-20T11:56:24;8.90;94.40
53748;DHT22;39655;53.210;5.768;2023-03-20T12:01:27;8.90;94.70
53748;DHT22;39655;53.210;5.768;2023-03-20T12:04:09;8.80;94.70
53748;DHT22;39655;53.210;5.768;2023-03-20T12:06:53;8.90;94.80
53748;DHT22;39655;53.210;5.768;2023-03-20T12:14:59;9.00;95.10
53748;DHT22;39655;53.210;5.768;2023-03-20T12:17:34;9.00;95.10
53748;DHT22;39655;53.210;5.768;2023-03-20T12:20:31;9.10;95.30
53748;DHT22;39655;53.210;5.768;2023-03-20T12:23:13;9.10;95.20
53748;DHT22;39655;53.210;5.768;2023-03-20T12:28:19;9.10;95.40
53748;DHT22;39655;53.210;5.768;2023-03-20T12:36:37;9.10;95.40
53748;DHT22;39655;53.210;5.768;2023-03-20T12:39:31;9.10;95.20
53748;DHT22;39655;53.210;5.768;2023-03-20T12:45:19;9.00;95.50
53748;DHT22;39655;53.210;5.768;2023-03-20T12:50:49;9.00;95.40
53748;DHT22;39655;53.210;5.768;2023-03-20T12:53:47;9.00;95.50
53748;DHT22;39655;53.210;5.768;2023-03-20T12:56:29;8.90;95.40
53748;DHT22;39655;53.210;5.768;2023-03-20T12:59:05;8.90;95.50
53748;DHT22;39655;53.210;5.768;2023-03-20T13:01:46;8.90;95.60
53748;DHT22;39655;53.210;5.768;2023-03-20T13:04:23;9.00;95.60
53748;DHT22;39655;53.210;5.768;2023-03-20T13:06:54;9.00;95.70
53748;DHT22;39655;53.210;5.768;2023-03-20T13:20:29;9.00;95.80
53748;DHT22;39655;53.210;5.768;2023-03-20T13:29:07;9.10;95.80
53748;DHT22;39655;53.210;5.768;2023-03-20T13:37:27;9.00;95.80
53748;DHT22;39655;53.210;5.768;2023-03-20T13:40:05;9.00;96.00
53748;DHT22;39655;53.210;5.768;2023-03-20T13:42:51;9.10;96.20
53748;DHT22;39655;53.210;5.768;2023-03-20T13:47:45;9.00;96.10
53748;DHT22;39655;53.210;5.768;2023-03-20T13:55:56;9.00;96.20
53748;DHT22;39655;53.210;5.768;2023-03-20T14:01:20;9.00;96.20
53748;DHT22;39655;53.210;5.768;2023-03-20T14:03:50;9.10;96.50
53748;DHT22;39655;53.210;5.768;2023-03-20T14:06:46;9.00;96.30
53748;DHT22;39655;53.210;5.768;2023-03-20T14:09:31;9.00;96.30
53748;DHT22;39655;53.210;5.768;2023-03-20T14:12:01;9.00;96.40
53748;DHT22;39655;53.210;5.768;2023-03-20T14:14:29;8.90;96.40
53748;DHT22;39655;53.210;5.768;2023-03-20T14:17:16;9.10;96.80
53748;DHT22;39655;53.210;5.768;2023-03-20T14:19:44;9.00;96.60
53748;DHT22;39655;53.210;5.768;2023-03-20T14:22:19;9.00;96.70
53748;DHT22;39655;53.210;5.768;2023-03-20T14:24:59;9.00;96.70
53748;DHT22;39655;53.210;5.768;2023-03-20T14:27:29;9.10;96.70
53748;DHT22;39655;53.210;5.768;2023-03-20T14:33:05;9.10;96.80
53748;DHT22;39655;53.210;5.768;2023-03-20T14:35:36;9.10;96.90
53748;DHT22;39655;53.210;5.768;2023-03-20T14:46:30;9.10;96.90
53748;DHT22;39655;53.210;5.768;2023-03-20T14:49:25;9.10;97.00
53748;DHT22;39655;53.210;5.768;2023-03-20T14:52:17;9.10;96.80
53748;DHT22;39655;53.210;5.768;2023-03-20T14:54:51;9.00;96.90
53748;DHT22;39655;53.210;5.768;2023-03-20T14:57:32;8.90;96.80
53748;DHT22;39655;53.210;5.768;2023-03-20T14:59:58;9.00;96.90
53748;DHT22;39655;53.210;5.768;2023-03-20T15:02:34;9.00;97.00
53748;DHT22;39655;53.210;5.768;2023-03-20T15:05:03;9.00;97.00
53748;DHT22;39655;53.210;5.768;2023-03-20T15:07:30;8.90;96.90
53748;DHT22;39655;53.210;5.768;2023-03-20T15:10:00;9.00;97.00
53748;DHT22;39655;53.210;5.768;2023-03-20T15:12:31;9.00;97.10
53748;DHT22;39655;53.210;5.768;2023-03-20T15:15:06;9.00;97.20
53748;DHT22;39655;53.210;5.768;2023-03-20T15:17:36;9.00;97.00
53748;DHT22;39655;53.210;5.768;2023-03-20T15:20:20;9.00;97.10
53748;DHT22;39655;53.210;5.768;2023-03-20T15:22:55;9.00;97.10
53748;DHT22;39655;53.210;5.768;2023-03-20T15:25:30;9.00;97.10
53748;DHT22;39655;53.210;5.768;2023-03-20T15:28:00;9.00;97.20
53748;DHT22;39655;53.210;5.768;2023-03-20T15:30:25;9.00;97.10
53748;DHT22;39655;53.210;5.768;2023-03-20T15:32:56;9.00;97.10
53748;DHT22;39655;53.210;5.768;2023-03-20T15:35:24;9.00;97.20
53748;DHT22;39655;53.210;5.768;2023-03-20T15:37:50;9.10;97.00
53748;DHT22;39655;53.210;5.768;2023-03-20T15:40:24;9.00;97.00
53748;DHT22;39655;53.210;5.768;2023-03-20T15:46:03;9.10;97.10
53748;DHT22;39655;53.210;5.768;2023-03-20T15:48:28;9.00;97.00
53748;DHT22;39655;53.210;5.768;2023-03-20T15:51:01;9.00;97.10
53748;DHT22;39655;53.210;5.768;2023-03-20T15:53:35;9.00;97.20
53748;DHT22;39655;53.210;5.768;2023-03-20T15:56:16;9.00;97.20
53748;DHT22;39655;53.210;5.768;2023-03-20T15:58:48;9.00;97.30
53748;DHT22;39655;53.210;5.768;2023-03-20T16:01:19;9.00;97.40
53748;DHT22;39655;53.210;5.768;2023-03-20T16:03:45;9.00;97.40
53748;DHT22;39655;53.210;5.768;2023-03-20T16:06:12;9.00;97.40
53748;DHT22;39655;53.210;5.768;2023-03-20T16:08:41;9.00;97.40
53748;DHT22;39655;53.210;5.768;2023-03-20T16:11:16;9.00;97.40
53748;DHT22;39655;53.210;5.768;2023-03-20T16:13:48;9.00;97.40
53748;DHT22;39655;53.210;5.768;2023-03-20T16:16:21;9.00;97.40
53748;DHT22;39655;53.210;5.768;2023-03-20T16:18:48;9.00;97.50
53748;DHT22;39655;53.210;5.768;2023-03-20T16:21:35;9.00;97.50
53748;DHT22;39655;53.210;5.768;2023-03-20T16:24:08;8.90;97.50
53748;DHT22;39655;53.210;5.768;2023-03-20T16:26:38;8.90;97.50
53748;DHT22;39655;53.210;5.768;2023-03-20T16:29:05;8.90;97.60
53748;DHT22;39655;53.210;5.768;2023-03-20T16:31:35;8.90;97.60
53748;DHT22;39655;53.210;5.768;2023-03-20T16:34:11;8.90;97.60
53748;DHT22;39655;53.210;5.768;2023-03-20T16:36:49;8.90;97.70
53748;DHT22;39655;53.210;5.768;2023-03-20T16:41:42;8.80;97.70
53748;DHT22;39655;53.210;5.768;2023-03-20T16:44:15;8.90;97.80
53748;DHT22;39655;53.210;5.768;2023-03-20T16:46:59;8.90;97.80
53748;DHT22;39655;53.210;5.768;2023-03-20T16:51:58;8.90;97.80
53748;DHT22;39655;53.210;5.768;2023-03-20T16:54:27;8.90;97.90
53748;DHT22;39655;53.210;5.768;2023-03-20T16:56:55;8.90;97.90
53748;DHT22;39655;53.210;5.768;2023-03-20T16:59:22;8.90;97.90
53748;DHT22;39655;53.210;5.768;2023-03-20T17:01:49;8.90;97.90
53748;DHT22;39655;53.210;5.768;2023-03-20T17:04:34;8.90;98.00
53748;DHT22;39655;53.210;5.768;2023-03-20T17:07:12;8.90;97.90
53748;DHT22;39655;53.210;5.768;2023-03-20T17:10:09;8.90;98.00
53748;DHT22;39655;53.210;5.768;2023-03-20T17:12:38;8.90;98.00
53748;DHT22;39655;53.210;5.768;2023-03-20T17:15:04;8.90;98.00
53748;DHT22;39655;53.210;5.768;2023-03-20T17:17:30;8.90;98.10
53748;DHT22;39655;53.210;5.768;2023-03-20T17:19:56;8.90;98.10
53748;DHT22;39655;53.210;5.768;2023-03-20T17:22:25;8.90;98.10
53748;DHT22;39655;53.210;5.768;2023-03-20T17:24:53;8.90;98.20
53748;DHT22;39655;53.210;5.768;2023-03-20T17:27:19;8.90;98.10
53748;DHT22;39655;53.210;5.768;2023-03-20T17:29:46;8.80;98.00
53748;DHT22;39655;53.210;5.768;2023-03-20T17:32:16;8.90;98.10
53748;DHT22;39655;53.210;5.768;2023-03-20T17:34:42;8.80;98.00
53748;DHT22;39655;53.210;5.768;2023-03-20T17:37:13;8.80;98.10
53748;DHT22;39655;53.210;5.768;2023-03-20T17:39:39;8.90;98.20
53748;DHT22;39655;53.210;5.768;2023-03-20T17:42:15;8.90;98.20
53748;DHT22;39655;53.210;5.768;2023-03-20T17:44:41;8.80;98.10
53748;DHT22;39655;53.210;5.768;2023-03-20T17:47:13;8.80;98.10
53748;DHT22;39655;53.210;5.768;2023-03-20T17:49:39;8.80;98.10
53748;DHT22;39655;53.210;5.768;2023-03-20T17:52:07;8.80;98.10
53748;DHT22;39655;53.210;5.768;2023-03-20T17:54:34;8.80;98.20
53748;DHT22;39655;53.210;5.768;2023-03-20T17:57:00;8.80;98.20
53748;DHT22;39655;53.210;5.768;2023-03-20T17:59:26;8.80;98.10
53748;DHT22;39655;53.210;5.768;2023-03-20T18:01:55;8.80;98.20
53748;DHT22;39655;53.210;5.768;2023-03-20T18:04:21;8.80;98.20
53748;DHT22;39655;53.210;5.768;2023-03-20T18:06:48;8.80;98.20
53748;DHT22;39655;53.210;5.768;2023-03-20T18:09:14;8.80;98.20
53748;DHT22;39655;53.210;5.768;2023-03-20T18:11:40;8.80;98.30
53748;DHT22;39655;53.210;5.768;2023-03-20T18:14:06;8.80;98.30
53748;DHT22;39655;53.210;5.768;2023-03-20T18:16:32;8.80;98.30
53748;DHT22;39655;53.210;5.768;2023-03-20T18:18:59;8.80;98.30